Time;durP1;ratioP1;P1;durP2;ratioP2;P2;SDS_P1;SDS_P2;PMS_P1;PMS_P2;Temp;Humidity;BMP_temperature;BMP_pressure;BME280_temperature;BME280_humidity;BME280_pressure;Samples;Min_cycle;Max_cycle;Signal;HPM_P1;HPM_P2
2023/08/06 00:00:01;;;;;;;4.65;3.63;;;;;;;;;;4992315;28;25068;-74
2023/08/06 00:02:27;;;;;;;6.65;3.65;;;;;;;;;;4986646;28;25152;-75
2023/08/06 00:04:53;;;;;;;4.47;3.47;;;;;;;;;;4992162;28;25122;-75
2023/08/06 00:07:19;;;;;;;5.43;3.65;;;;;;;;;;5002402;28;25071;-73
2023/08/06 00:09:44;;;;;;;6.13;3.50;;;;;;;;;;4984034;28;25061;-74
2023/08/06 00:12:10;;;;;;;5.30;3.75;;;;;;;;;;4992919;28;25058;-73
2023/08/06 00:14:36;;;;;;;5.70;3.63;;;;;;;;;;4994641;28;25131;-75
2023/08/06 00:17:02;;;;;;;3.45;3.15;;;;;;;;;;4990539;28;25164;-73
2023/08/06 00:19:28;;;;;;;14.20;4.68;;;;;;;;;;4999794;28;25042;-74
2023/08/06 00:21:54;;;;;;;8.70;3.60;;;;;;;;;;4992162;28;25070;-75
2023/08/06 00:24:20;;;;;;;8.68;4.00;;;;;;;;;;5012646;28;25103;-74
2023/08/06 00:26:46;;;;;;;5.13;3.65;;;;;;;;;;4994273;28;25151;-74
2023/08/06 00:29:12;;;;;;;4.30;3.47;;;;;;;;;;5002346;28;25068;-74
2023/08/06 00:31:38;;;;;;;5.30;3.60;;;;;;;;;;4991509;28;25069;-75
2023/08/06 00:34:04;;;;;;;6.93;3.90;;;;;;;;;;4995628;28;25088;-75
2023/08/06 00:36:30;;;;;;;4.00;3.05;;;;;;;;;;4988733;28;25086;-75
2023/08/06 00:38:56;;;;;;;5.88;4.05;;;;;;;;;;4993210;28;25061;-75
2023/08/06 00:41:22;;;;;;;5.65;3.78;;;;;;;;;;4997113;28;25104;-75
2023/08/06 00:43:48;;;;;;;6.55;3.88;;;;;;;;;;4999784;28;25063;-74
2023/08/06 00:46:15;;;;;;;5.63;3.42;;;;;;;;;;4996518;28;25077;-75
2023/08/06 00:48:42;;;;;;;4.68;3.83;;;;;;;;;;4995925;28;25060;-73
2023/08/06 00:51:09;;;;;;;4.90;3.72;;;;;;;;;;4992385;28;25150;-75
2023/08/06 00:53:35;;;;;;;5.28;3.65;;;;;;;;;;4994322;28;25106;-74
2023/08/06 00:56:02;;;;;;;4.13;3.42;;;;;;;;;;4996959;28;25175;-74
2023/08/06 00:58:28;;;;;;;6.25;3.47;;;;;;;;;;4987060;28;25119;-75
2023/08/06 01:00:54;;;;;;;4.93;4.07;;;;;;;;;;5006143;28;25141;-75
2023/08/06 01:03:20;;;;;;;3.70;3.40;;;;;;;;;;4997499;28;25061;-77
2023/08/06 01:05:46;;;;;;;4.57;3.47;;;;;;;;;;4999305;28;25159;-76
2023/08/06 01:08:44;;;;;;;5.97;4.05;;;;;;;;;;5001494;28;25117;-75
2023/08/06 01:11:16;;;;;;;7.28;3.97;;;;;;;;;;4965331;28;25081;-75
2023/08/06 01:13:46;;;;;;;6.60;4.50;;;;;;;;;;4993451;28;25086;-75
2023/08/06 01:16:12;;;;;;;6.07;4.20;;;;;;;;;;4999870;28;25076;-74
2023/08/06 01:18:39;;;;;;;6.55;4.07;;;;;;;;;;4997220;28;25139;-74
2023/08/06 01:21:05;;;;;;;5.00;3.72;;;;;;;;;;4994507;28;25087;-74
2023/08/06 01:23:31;;;;;;;4.38;3.95;;;;;;;;;;5000729;28;25144;-72
2023/08/06 01:26:11;;;;;;;5.82;4.22;;;;;;;;;;5002226;28;25063;-74
2023/08/06 01:28:41;;;;;;;7.40;3.95;;;;;;;;;;4988978;28;25058;-74
2023/08/06 01:31:11;;;;;;;6.82;4.28;;;;;;;;;;5010749;28;25066;-75
2023/08/06 01:33:39;;;;;;;5.60;4.13;;;;;;;;;;5002559;28;25055;-75
2023/08/06 01:36:06;;;;;;;7.32;4.15;;;;;;;;;;5002883;28;25069;-76
2023/08/06 01:38:32;;;;;;;5.18;4.68;;;;;;;;;;5004156;28;25071;-75
2023/08/06 01:40:58;;;;;;;5.25;4.20;;;;;;;;;;4989961;28;25060;-76
2023/08/06 01:43:24;;;;;;;5.72;4.28;;;;;;;;;;4988977;28;25054;-75
2023/08/06 01:45:50;;;;;;;18.48;5.05;;;;;;;;;;4988982;28;25105;-75
2023/08/06 01:48:16;;;;;;;7.45;4.75;;;;;;;;;;4993044;28;25095;-73
2023/08/06 01:50:42;;;;;;;4.43;4.00;;;;;;;;;;4994662;28;25171;-74
2023/08/06 01:53:08;;;;;;;6.43;5.13;;;;;;;;;;4996257;28;25058;-74
2023/08/06 01:55:34;;;;;;;6.78;4.65;;;;;;;;;;4993144;28;25052;-74
2023/08/06 01:58:00;;;;;;;5.35;4.55;;;;;;;;;;5006778;28;25063;-75
2023/08/06 02:00:27;;;;;;;6.43;4.38;;;;;;;;;;5004475;28;25119;-73
2023/08/06 02:02:53;;;;;;;7.82;4.63;;;;;;;;;;4993488;28;25000;-73
2023/08/06 02:05:19;;;;;;;8.55;5.68;;;;;;;;;;5000997;28;25104;-74
2023/08/06 02:07:46;;;;;;;7.43;4.95;;;;;;;;;;4994852;28;25051;-75
2023/08/06 02:10:12;;;;;;;9.38;6.78;;;;;;;;;;5003398;28;25097;-75
2023/08/06 02:12:38;;;;;;;8.40;5.85;;;;;;;;;;5002527;28;25149;-76
2023/08/06 02:15:04;;;;;;;8.00;6.38;;;;;;;;;;5005705;28;25092;-74
2023/08/06 02:17:30;;;;;;;8.95;7.63;;;;;;;;;;5014692;28;25071;-74
2023/08/06 02:19:56;;;;;;;13.30;9.00;;;;;;;;;;5015669;28;25095;-77
2023/08/06 02:22:23;;;;;;;15.40;8.88;;;;;;;;;;4994058;28;25072;-74
2023/08/06 02:24:50;;;;;;;13.35;9.10;;;;;;;;;;4996913;28;25080;-76
2023/08/06 02:27:16;;;;;;;15.02;9.50;;;;;;;;;;5000112;28;25055;-74
2023/08/06 02:29:42;;;;;;;15.10;8.98;;;;;;;;;;4993959;28;25060;-73
2023/08/06 02:32:08;;;;;;;14.18;8.88;;;;;;;;;;5006242;28;25076;-74
2023/08/06 02:34:34;;;;;;;12.82;9.55;;;;;;;;;;5002305;28;25114;-75
2023/08/06 02:37:00;;;;;;;11.25;8.68;;;;;;;;;;5001076;28;25081;-74
2023/08/06 02:39:26;;;;;;;15.60;10.35;;;;;;;;;;4997953;28;25089;-73
2023/08/06 02:41:52;;;;;;;12.38;8.95;;;;;;;;;;5001542;28;25142;-75
2023/08/06 02:44:18;;;;;;;16.88;10.52;;;;;;;;;;4998370;28;25096;-73
2023/08/06 02:46:45;;;;;;;15.40;9.80;;;;;;;;;;4996308;28;25058;-75
2023/08/06 02:49:11;;;;;;;13.68;10.38;;;;;;;;;;5000270;28;25059;-73
2023/08/06 02:51:37;;;;;;;15.50;10.57;;;;;;;;;;4997407;28;25081;-76
2023/08/06 02:54:03;;;;;;;14.48;11.20;;;;;;;;;;4996475;28;25258;-75
2023/08/06 02:56:29;;;;;;;18.30;12.18;;;;;;;;;;5017936;28;25059;-73
2023/08/06 02:58:55;;;;;;;14.30;11.10;;;;;;;;;;4999438;28;25163;-73
2023/08/06 03:01:23;;;;;;;15.48;12.15;;;;;;;;;;4990569;28;25090;-73
2023/08/06 03:03:49;;;;;;;18.60;12.10;;;;;;;;;;4987471;28;25092;-76
2023/08/06 03:06:15;;;;;;;16.50;12.43;;;;;;;;;;4998858;28;25125;-75
2023/08/06 03:08:41;;;;;;;16.35;12.35;;;;;;;;;;4994816;28;25071;-75
2023/08/06 03:11:07;;;;;;;17.45;13.35;;;;;;;;;;5000222;28;25144;-74
2023/08/06 03:13:33;;;;;;;15.43;11.43;;;;;;;;;;5005567;28;25075;-75
2023/08/06 03:16:00;;;;;;;16.92;12.45;;;;;;;;;;4996466;28;25069;-75
2023/08/06 03:18:26;;;;;;;17.25;12.68;;;;;;;;;;4994888;28;25101;-76
2023/08/06 03:20:53;;;;;;;20.05;13.65;;;;;;;;;;4997352;28;25143;-74
2023/08/06 03:23:19;;;;;;;24.13;14.32;;;;;;;;;;4997168;28;25044;-75
2023/08/06 03:25:46;;;;;;;24.42;14.15;;;;;;;;;;4991784;28;25068;-74
2023/08/06 03:28:12;;;;;;;19.85;13.65;;;;;;;;;;4990392;28;25050;-74
2023/08/06 03:30:39;;;;;;;21.27;14.07;;;;;;;;;;4990178;28;25086;-74
2023/08/06 03:33:05;;;;;;;22.13;14.27;;;;;;;;;;5000589;28;25060;-73
2023/08/06 03:35:31;;;;;;;20.50;14.13;;;;;;;;;;4995310;28;25058;-73
2023/08/06 03:37:57;;;;;;;21.48;14.93;;;;;;;;;;4994949;28;25069;-73
2023/08/06 03:40:23;;;;;;;20.08;14.40;;;;;;;;;;4988891;28;25080;-72
2023/08/06 03:42:49;;;;;;;23.95;15.40;;;;;;;;;;4985782;28;25075;-75
2023/08/06 03:45:15;;;;;;;24.95;15.80;;;;;;;;;;4991769;28;25043;-75
2023/08/06 03:47:41;;;;;;;22.45;15.45;;;;;;;;;;4992883;28;25072;-72
2023/08/06 03:50:07;;;;;;;21.85;14.30;;;;;;;;;;5003827;28;25051;-73
2023/08/06 03:52:33;;;;;;;24.58;16.08;;;;;;;;;;4987309;28;25107;-72
2023/08/06 03:54:59;;;;;;;21.27;14.73;;;;;;;;;;4989192;28;25065;-72
2023/08/06 03:57:25;;;;;;;27.33;16.08;;;;;;;;;;4989677;28;25065;-72
2023/08/06 03:59:51;;;;;;;21.67;15.95;;;;;;;;;;4987769;28;25099;-74
2023/08/06 04:02:17;;;;;;;22.77;15.85;;;;;;;;;;4993893;28;25087;-74
2023/08/06 04:04:43;;;;;;;25.63;16.25;;;;;;;;;;4985978;28;25055;-75
2023/08/06 04:07:09;;;;;;;22.60;15.30;;;;;;;;;;4996000;28;25110;-75
2023/08/06 04:09:51;;;;;;;27.75;16.73;;;;;;;;;;4987306;28;25105;-75
2023/08/06 04:12:17;;;;;;;20.10;14.57;;;;;;;;;;4993293;28;25079;-73
2023/08/06 04:14:43;;;;;;;18.52;12.65;;;;;;;;;;4995206;28;25071;-70
2023/08/06 04:17:09;;;;;;;9.25;7.50;;;;;;;;;;4988857;28;25109;-72
2023/08/06 04:19:35;;;;;;;10.65;6.30;;;;;;;;;;5002225;28;25065;-72
2023/08/06 04:22:01;;;;;;;7.32;4.47;;;;;;;;;;5006018;28;25229;-75
2023/08/06 04:24:27;;;;;;;4.97;4.40;;;;;;;;;;5004294;28;25072;-72
2023/08/06 04:26:53;;;;;;;8.00;3.95;;;;;;;;;;4990845;28;25097;-76
2023/08/06 04:29:19;;;;;;;5.22;4.47;;;;;;;;;;5001653;28;25082;-76
2023/08/06 04:31:45;;;;;;;5.72;4.30;;;;;;;;;;4994282;28;25146;-73
2023/08/06 04:34:11;;;;;;;7.03;4.85;;;;;;;;;;4989697;28;25071;-75
2023/08/06 04:36:38;;;;;;;6.32;4.80;;;;;;;;;;4996890;28;25067;-75
2023/08/06 04:39:04;;;;;;;4.85;4.05;;;;;;;;;;5004081;28;25066;-74
2023/08/06 04:41:30;;;;;;;8.13;4.60;;;;;;;;;;4991754;28;25066;-73
2023/08/06 04:43:57;;;;;;;9.93;4.60;;;;;;;;;;4983853;28;25151;-73
2023/08/06 04:46:23;;;;;;;10.05;4.85;;;;;;;;;;5003898;28;25091;-76
2023/08/06 04:48:49;;;;;;;10.40;4.55;;;;;;;;;;4998208;28;25148;-75
2023/08/06 04:51:15;;;;;;;11.43;5.60;;;;;;;;;;5001492;28;25055;-75
2023/08/06 04:53:41;;;;;;;5.70;4.35;;;;;;;;;;4993247;28;25127;-76
2023/08/06 04:56:07;;;;;;;9.70;5.28;;;;;;;;;;4997028;28;25161;-74
2023/08/06 04:58:33;;;;;;;7.13;5.38;;;;;;;;;;5003295;28;25067;-76
2023/08/06 05:00:59;;;;;;;7.88;4.85;;;;;;;;;;5003680;28;25054;-74
2023/08/06 05:03:25;;;;;;;8.88;4.53;;;;;;;;;;5012155;28;25082;-75
2023/08/06 05:05:51;;;;;;;6.18;4.15;;;;;;;;;;4999571;28;25087;-75
2023/08/06 05:08:17;;;;;;;7.40;4.72;;;;;;;;;;5015551;28;25047;-74
2023/08/06 05:10:44;;;;;;;9.48;4.65;;;;;;;;;;5009020;28;25063;-73
2023/08/06 05:13:10;;;;;;;7.90;4.07;;;;;;;;;;5004242;28;25073;-74
2023/08/06 05:15:36;;;;;;;7.60;4.10;;;;;;;;;;5017264;28;25054;-74
2023/08/06 05:18:02;;;;;;;9.40;4.85;;;;;;;;;;5004033;28;25103;-74
2023/08/06 05:20:28;;;;;;;7.70;4.07;;;;;;;;;;5000917;28;25105;-73
2023/08/06 05:22:54;;;;;;;10.85;3.95;;;;;;;;;;5008766;28;25085;-74
2023/08/06 05:25:20;;;;;;;8.27;4.65;;;;;;;;;;5011150;28;25179;-74
2023/08/06 05:27:46;;;;;;;11.18;4.80;;;;;;;;;;5007768;28;25079;-73
2023/08/06 05:30:13;;;;;;;8.80;5.03;;;;;;;;;;4996212;28;25121;-73
2023/08/06 05:32:39;;;;;;;9.15;4.40;;;;;;;;;;5008204;28;25082;-73
2023/08/06 05:35:06;;;;;;;6.47;4.45;;;;;;;;;;5004703;28;25093;-74
2023/08/06 05:37:32;;;;;;;7.72;4.30;;;;;;;;;;5004665;28;25063;-74
2023/08/06 05:39:58;;;;;;;13.77;5.07;;;;;;;;;;5002536;28;25079;-73
2023/08/06 05:42:24;;;;;;;7.93;5.10;;;;;;;;;;5012829;28;25097;-73
2023/08/06 05:44:50;;;;;;;7.75;4.80;;;;;;;;;;5009122;28;25087;-74
2023/08/06 05:47:16;;;;;;;9.80;5.63;;;;;;;;;;5009628;28;25078;-73
2023/08/06 05:49:42;;;;;;;11.75;5.68;;;;;;;;;;4998551;28;25181;-73
2023/08/06 05:52:08;;;;;;;10.68;5.80;;;;;;;;;;5016250;28;25064;-73
2023/08/06 05:54:34;;;;;;;11.60;6.82;;;;;;;;;;5005486;28;25058;-73
2023/08/06 05:57:00;;;;;;;10.02;5.72;;;;;;;;;;5002816;28;25057;-75
2023/08/06 05:59:26;;;;;;;9.95;5.50;;;;;;;;;;5009371;28;25094;-73
2023/08/06 06:01:52;;;;;;;10.57;5.72;;;;;;;;;;5010584;28;25087;-71
2023/08/06 06:04:18;;;;;;;13.40;5.22;;;;;;;;;;5004437;28;25081;-73
2023/08/06 06:06:44;;;;;;;9.45;5.55;;;;;;;;;;4997888;28;25062;-71
2023/08/06 06:09:10;;;;;;;9.52;5.75;;;;;;;;;;5020534;28;25046;-72
2023/08/06 06:11:36;;;;;;;10.70;5.18;;;;;;;;;;4991259;28;25157;-74
2023/08/06 06:14:02;;;;;;;13.80;5.20;;;;;;;;;;4999797;28;25055;-73
2023/08/06 06:16:28;;;;;;;6.72;4.53;;;;;;;;;;5001515;28;25069;-74
2023/08/06 06:18:54;;;;;;;6.82;4.43;;;;;;;;;;5001863;28;25046;-73
2023/08/06 06:21:21;;;;;;;7.82;4.07;;;;;;;;;;4997698;28;25061;-72
2023/08/06 06:23:46;;;;;;;6.75;3.67;;;;;;;;;;5002295;28;25069;-72
2023/08/06 06:26:13;;;;;;;9.27;3.65;;;;;;;;;;5003024;28;25059;-74
2023/08/06 06:28:39;;;;;;;7.80;4.20;;;;;;;;;;4987886;28;25143;-72
2023/08/06 06:31:05;;;;;;;8.85;3.67;;;;;;;;;;4992472;28;25066;-72
2023/08/06 06:33:31;;;;;;;7.57;3.50;;;;;;;;;;5004009;28;25143;-75
2023/08/06 06:35:57;;;;;;;7.60;3.03;;;;;;;;;;4995561;28;25083;-74
2023/08/06 06:38:23;;;;;;;8.07;3.00;;;;;;;;;;5000986;28;25153;-73
2023/08/06 06:40:56;;;;;;;7.93;2.85;;;;;;;;;;4990601;28;25065;-72
2023/08/06 06:43:22;;;;;;;3.70;2.90;;;;;;;;;;5002316;28;25043;-74
2023/08/06 06:45:48;;;;;;;7.35;3.60;;;;;;;;;;4995212;28;25065;-73
2023/08/06 06:48:14;;;;;;;7.05;3.58;;;;;;;;;;4990924;28;25074;-73
2023/08/06 06:50:40;;;;;;;8.38;2.90;;;;;;;;;;4994415;28;25068;-73
2023/08/06 06:53:06;;;;;;;5.15;2.63;;;;;;;;;;4998330;28;25101;-73
2023/08/06 06:55:32;;;;;;;10.63;3.65;;;;;;;;;;4985005;28;24826;-74
2023/08/06 06:57:57;;;;;;;6.00;2.53;;;;;;;;;;4989348;28;25078;-75
2023/08/06 07:00:23;;;;;;;4.30;2.38;;;;;;;;;;4997625;28;25053;-73
2023/08/06 07:02:49;;;;;;;8.30;2.72;;;;;;;;;;4993718;28;25135;-73
2023/08/06 07:05:15;;;;;;;4.70;1.63;;;;;;;;;;4994794;28;25060;-74
2023/08/06 07:07:42;;;;;;;7.75;1.83;;;;;;;;;;4991188;28;25077;-75
2023/08/06 07:10:08;;;;;;;6.55;1.98;;;;;;;;;;4984153;28;25072;-74
2023/08/06 07:12:34;;;;;;;4.88;1.80;;;;;;;;;;4986324;28;25117;-74
2023/08/06 07:15:00;;;;;;;6.95;1.70;;;;;;;;;;4990777;28;25153;-73
2023/08/06 07:17:26;;;;;;;7.50;1.80;;;;;;;;;;4994423;28;25050;-72
2023/08/06 07:19:52;;;;;;;4.47;1.80;;;;;;;;;;4992375;28;25130;-72
2023/08/06 07:22:18;;;;;;;2.20;1.55;;;;;;;;;;4996451;28;25062;-73
2023/08/06 07:24:44;;;;;;;7.38;1.88;;;;;;;;;;5003867;28;25148;-73
2023/08/06 07:27:10;;;;;;;3.53;1.65;;;;;;;;;;5006623;28;25086;-73
2023/08/06 07:29:36;;;;;;;2.33;1.90;;;;;;;;;;4996661;28;25074;-72
2023/08/06 07:32:02;;;;;;;4.65;2.10;;;;;;;;;;4990479;28;25056;-73
2023/08/06 07:34:27;;;;;;;5.38;2.03;;;;;;;;;;4998243;28;25141;-74
2023/08/06 07:36:53;;;;;;;4.00;2.13;;;;;;;;;;4987067;28;25071;-73
2023/08/06 07:39:19;;;;;;;6.07;2.00;;;;;;;;;;4991719;28;25060;-72
2023/08/06 07:41:45;;;;;;;4.90;2.00;;;;;;;;;;4991853;28;25096;-74
2023/08/06 07:44:12;;;;;;;5.25;2.33;;;;;;;;;;4988197;28;25079;-74
2023/08/06 07:46:39;;;;;;;2.05;1.58;;;;;;;;;;4993896;28;25071;-72
2023/08/06 07:49:05;;;;;;;4.88;2.10;;;;;;;;;;5005305;28;25056;-73
2023/08/06 07:51:31;;;;;;;3.70;2.10;;;;;;;;;;5021754;28;25059;-72
2023/08/06 07:53:57;;;;;;;7.25;3.38;;;;;;;;;;5002251;28;25092;-74
2023/08/06 07:56:23;;;;;;;4.45;1.77;;;;;;;;;;4987929;28;25059;-73
2023/08/06 07:58:49;;;;;;;5.20;2.25;;;;;;;;;;4997912;28;25134;-72
2023/08/06 08:01:15;;;;;;;3.10;2.15;;;;;;;;;;4991759;28;25155;-73
2023/08/06 08:03:41;;;;;;;7.03;2.83;;;;;;;;;;4987667;28;25090;-74
2023/08/06 08:06:07;;;;;;;3.13;2.22;;;;;;;;;;4984147;28;25172;-74
2023/08/06 08:08:33;;;;;;;3.58;1.70;;;;;;;;;;4991149;28;25069;-73
2023/08/06 08:11:00;;;;;;;4.78;1.95;;;;;;;;;;4997489;28;25073;-73
2023/08/06 08:13:26;;;;;;;3.40;2.42;;;;;;;;;;4990171;28;25132;-73
2023/08/06 08:15:57;;;;;;;4.20;2.17;;;;;;;;;;5000461;28;25068;-74
2023/08/06 08:18:23;;;;;;;4.88;1.92;;;;;;;;;;4990532;28;25060;-73
2023/08/06 08:20:49;;;;;;;3.40;1.70;;;;;;;;;;4980294;28;25145;-73
2023/08/06 08:23:15;;;;;;;4.88;2.05;;;;;;;;;;5012950;28;25092;-73
2023/08/06 08:25:41;;;;;;;3.38;2.15;;;;;;;;;;4996100;28;25074;-73
2023/08/06 08:28:07;;;;;;;5.50;2.05;;;;;;;;;;4996424;28;25064;-72
2023/08/06 08:30:33;;;;;;;4.93;2.05;;;;;;;;;;4998973;28;25078;-75
2023/08/06 08:32:59;;;;;;;5.22;2.10;;;;;;;;;;4997703;28;25081;-75
2023/08/06 08:35:25;;;;;;;3.92;2.38;;;;;;;;;;4991992;28;25116;-73
2023/08/06 08:37:51;;;;;;;3.95;2.00;;;;;;;;;;4995343;28;25403;-74
2023/08/06 08:40:17;;;;;;;3.97;1.90;;;;;;;;;;5002235;28;25054;-72
2023/08/06 08:42:44;;;;;;;4.35;2.03;;;;;;;;;;5003070;28;25115;-74
2023/08/06 08:45:13;;;;;;;4.10;2.08;;;;;;;;;;5001960;28;25060;-75
2023/08/06 08:47:40;;;;;;;7.15;2.67;;;;;;;;;;4993276;28;25050;-72
2023/08/06 08:50:07;;;;;;;2.83;1.90;;;;;;;;;;4993129;28;25190;-71
2023/08/06 08:52:34;;;;;;;4.03;2.00;;;;;;;;;;4995654;28;25063;-72
2023/08/06 08:55:01;;;;;;;5.00;1.80;;;;;;;;;;4994393;28;25192;-71
2023/08/06 08:57:27;;;;;;;7.50;2.20;;;;;;;;;;4989035;28;25154;-72
2023/08/06 08:59:53;;;;;;;5.47;2.50;;;;;;;;;;4985687;28;25062;-72
2023/08/06 09:02:21;;;;;;;5.80;1.70;;;;;;;;;;4999551;28;25081;-73
2023/08/06 09:04:49;;;;;;;5.90;2.20;;;;;;;;;;4992734;28;25124;-74
2023/08/06 09:07:18;;;;;;;3.47;1.88;;;;;;;;;;5000046;28;25057;-73
2023/08/06 09:09:45;;;;;;;2.95;2.03;;;;;;;;;;4996480;28;25062;-70
2023/08/06 09:12:13;;;;;;;5.53;1.80;;;;;;;;;;5011931;28;25047;-74
2023/08/06 09:14:39;;;;;;;5.18;1.60;;;;;;;;;;4999148;28;25068;-76
2023/08/06 09:17:05;;;;;;;7.60;2.08;;;;;;;;;;4991448;28;25079;-74
2023/08/06 09:19:32;;;;;;;7.63;1.95;;;;;;;;;;4993918;28;25048;-74
2023/08/06 09:21:58;;;;;;;3.28;1.55;;;;;;;;;;5001220;28;25079;-73
2023/08/06 09:24:24;;;;;;;2.22;1.58;;;;;;;;;;5003881;28;25061;-74
2023/08/06 09:26:50;;;;;;;2.85;1.67;;;;;;;;;;4994949;28;25068;-74
2023/08/06 09:29:16;;;;;;;4.40;1.85;;;;;;;;;;5000296;28;25106;-74
2023/08/06 09:31:42;;;;;;;7.07;2.03;;;;;;;;;;4988573;28;25169;-73
2023/08/06 09:34:26;;;;;;;3.33;1.70;;;;;;;;;;4989635;28;25070;-74
2023/08/06 09:36:53;;;;;;;4.28;1.58;;;;;;;;;;4996598;28;25110;-73
2023/08/06 09:39:20;;;;;;;3.33;1.45;;;;;;;;;;4998574;28;25141;-75
2023/08/06 09:41:49;;;;;;;6.30;2.13;;;;;;;;;;4996775;28;25051;-75
2023/08/06 09:44:19;;;;;;;3.92;1.83;;;;;;;;;;4996953;28;25063;-73
2023/08/06 09:46:49;;;;;;;5.80;1.80;;;;;;;;;;4996276;28;25119;-73
2023/08/06 09:49:16;;;;;;;1.48;1.23;;;;;;;;;;4983852;28;25067;-73
2023/08/06 09:51:42;;;;;;;2.22;1.20;;;;;;;;;;5003256;28;25084;-74
2023/08/06 09:54:15;;;;;;;1.92;1.42;;;;;;;;;;4998758;28;25015;-74
2023/08/06 09:56:41;;;;;;;1.65;1.13;;;;;;;;;;4992206;28;25107;-76
2023/08/06 09:59:07;;;;;;;4.43;1.67;;;;;;;;;;4992432;28;25069;-74
2023/08/06 10:01:34;;;;;;;3.17;1.83;;;;;;;;;;5011449;28;25121;-72
2023/08/06 10:04:01;;;;;;;5.05;1.73;;;;;;;;;;5020006;28;25048;-73
2023/08/06 10:06:29;;;;;;;7.15;1.50;;;;;;;;;;5009246;28;25064;-72
2023/08/06 10:08:55;;;;;;;2.88;1.67;;;;;;;;;;4997015;28;25054;-73
2023/08/06 10:11:27;;;;;;;3.08;1.58;;;;;;;;;;5010515;28;25083;-75
2023/08/06 10:13:56;;;;;;;2.28;1.52;;;;;;;;;;5015321;28;25059;-74
2023/08/06 10:16:22;;;;;;;4.10;1.98;;;;;;;;;;5005613;28;25065;-73
2023/08/06 10:18:49;;;;;;;2.03;1.10;;;;;;;;;;5007201;28;25067;-74
2023/08/06 10:21:16;;;;;;;3.17;1.52;;;;;;;;;;5003965;28;25100;-72
2023/08/06 10:23:42;;;;;;;3.08;1.33;;;;;;;;;;5012114;28;25058;-73
2023/08/06 10:26:08;;;;;;;3.50;1.30;;;;;;;;;;5004619;28;25141;-72
2023/08/06 10:28:36;;;;;;;2.35;1.02;;;;;;;;;;5005789;28;25078;-73
2023/08/06 10:31:04;;;;;;;2.00;1.02;;;;;;;;;;5019065;28;25073;-74
2023/08/06 10:33:42;;;;;;;5.45;1.35;;;;;;;;;;5012395;28;25065;-73
2023/08/06 10:36:09;;;;;;;5.72;1.20;;;;;;;;;;5004253;28;25079;-73
2023/08/06 10:38:37;;;;;;;1.10;1.00;;;;;;;;;;5004057;28;25056;-72
2023/08/06 10:41:04;;;;;;;3.92;1.25;;;;;;;;;;5010866;28;25086;-74
2023/08/06 10:43:30;;;;;;;2.10;0.95;;;;;;;;;;5008620;28;25048;-73
2023/08/06 10:45:56;;;;;;;3.28;1.20;;;;;;;;;;5003706;28;25108;-73
2023/08/06 10:48:31;;;;;;;3.55;0.85;;;;;;;;;;5010199;28;25087;-73
2023/08/06 10:50:58;;;;;;;2.13;1.33;;;;;;;;;;5010030;28;25080;-73
2023/08/06 10:53:23;;;;;;;1.63;0.90;;;;;;;;;;5001386;28;25059;-74
2023/08/06 10:55:50;;;;;;;1.77;0.80;;;;;;;;;;5007400;28;25080;-73
2023/08/06 10:58:16;;;;;;;3.40;1.13;;;;;;;;;;4997133;28;25102;-72
2023/08/06 11:00:42;;;;;;;1.27;0.82;;;;;;;;;;5006236;28;25080;-76
2023/08/06 11:03:09;;;;;;;1.35;0.82;;;;;;;;;;5012683;28;25140;-72
2023/08/06 11:05:36;;;;;;;2.78;1.00;;;;;;;;;;5012394;28;25073;-74
2023/08/06 11:08:02;;;;;;;3.92;1.00;;;;;;;;;;5000973;28;25052;-74
2023/08/06 11:10:28;;;;;;;0.75;0.75;;;;;;;;;;5007806;28;25058;-74
2023/08/06 11:12:54;;;;;;;1.75;0.88;;;;;;;;;;5006302;28;25109;-72
2023/08/06 11:15:23;;;;;;;2.03;0.85;;;;;;;;;;5005127;28;25084;-72
2023/08/06 11:17:50;;;;;;;1.60;0.75;;;;;;;;;;5000226;28;25092;-72
2023/08/06 11:20:17;;;;;;;1.58;0.98;;;;;;;;;;5021614;28;25164;-74
2023/08/06 11:22:43;;;;;;;2.60;1.20;;;;;;;;;;5023547;28;25091;-74
2023/08/06 11:25:09;;;;;;;1.25;1.00;;;;;;;;;;5011644;28;25066;-73
2023/08/06 11:27:35;;;;;;;2.22;1.02;;;;;;;;;;5006173;28;25053;-73
2023/08/06 11:30:01;;;;;;;1.35;0.98;;;;;;;;;;5012215;28;25059;-74
2023/08/06 11:32:27;;;;;;;2.40;0.98;;;;;;;;;;4996612;28;25093;-73
2023/08/06 11:34:57;;;;;;;2.17;0.93;;;;;;;;;;4998166;28;25053;-74
2023/08/06 11:37:24;;;;;;;3.55;1.40;;;;;;;;;;5005631;28;25143;-72
2023/08/06 11:39:50;;;;;;;7.78;1.02;;;;;;;;;;5007275;28;25085;-73
2023/08/06 11:42:16;;;;;;;5.30;1.05;;;;;;;;;;5006107;28;25084;-75
2023/08/06 11:44:46;;;;;;;2.80;1.17;;;;;;;;;;5005861;28;25091;-73
2023/08/06 11:47:18;;;;;;;3.60;0.82;;;;;;;;;;5000259;28;25106;-73
2023/08/06 11:49:46;;;;;;;1.85;1.10;;;;;;;;;;4997922;28;25053;-73
2023/08/06 11:52:19;;;;;;;2.47;1.20;;;;;;;;;;5013473;28;25087;-74
2023/08/06 11:55:01;;;;;;;2.13;1.00;;;;;;;;;;5009204;28;25063;-74
2023/08/06 11:57:27;;;;;;;2.85;1.08;;;;;;;;;;4997791;28;25074;-72
2023/08/06 11:59:53;;;;;;;5.25;1.40;;;;;;;;;;4995725;28;25067;-74
2023/08/06 12:02:23;;;;;;;4.15;1.30;;;;;;;;;;5025658;28;25089;-74
2023/08/06 12:05:23;;;;;;;5.10;1.33;;;;;;;;;;5006280;28;25061;-74
2023/08/06 12:07:59;;;;;;;2.42;1.13;;;;;;;;;;4998510;28;25177;-73
2023/08/06 12:10:26;;;;;;;1.98;1.00;;;;;;;;;;5015740;28;25049;-73
2023/08/06 12:12:52;;;;;;;5.75;1.10;;;;;;;;;;5017322;28;25087;-74
2023/08/06 12:15:18;;;;;;;1.77;1.08;;;;;;;;;;5006317;28;25111;-73
2023/08/06 12:17:45;;;;;;;1.73;0.90;;;;;;;;;;5000858;28;25078;-73
2023/08/06 12:20:11;;;;;;;1.42;0.90;;;;;;;;;;5002854;28;25074;-74
2023/08/06 12:22:41;;;;;;;3.78;1.10;;;;;;;;;;5011258;28;25091;-73
2023/08/06 12:25:11;;;;;;;2.22;1.10;;;;;;;;;;5010563;28;25136;-73
2023/08/06 12:27:41;;;;;;;2.60;0.82;;;;;;;;;;4997399;28;25072;-74
2023/08/06 12:30:08;;;;;;;1.52;1.08;;;;;;;;;;4991246;28;25044;-75
2023/08/06 12:32:34;;;;;;;2.85;1.38;;;;;;;;;;4988608;28;25169;-73
2023/08/06 12:35:04;;;;;;;2.55;1.08;;;;;;;;;;4985455;28;25067;-74
2023/08/06 12:37:30;;;;;;;4.30;1.17;;;;;;;;;;4987387;28;25141;-73
2023/08/06 12:39:56;;;;;;;5.18;1.00;;;;;;;;;;4989984;28;25152;-73
2023/08/06 12:42:24;;;;;;;3.70;1.17;;;;;;;;;;4978781;28;25054;-73
2023/08/06 12:44:50;;;;;;;1.77;1.30;;;;;;;;;;4983841;28;25049;-73
2023/08/06 12:47:16;;;;;;;6.10;1.60;;;;;;;;;;4983958;28;25130;-75
2023/08/06 12:49:42;;;;;;;4.18;1.33;;;;;;;;;;4988501;28;25056;-74
2023/08/06 12:52:09;;;;;;;2.70;1.35;;;;;;;;;;4986498;28;25170;-74
2023/08/06 12:54:38;;;;;;;3.28;1.45;;;;;;;;;;5015656;28;25060;-74
2023/08/06 12:57:05;;;;;;;1.70;0.90;;;;;;;;;;4992612;28;25102;-73
2023/08/06 12:59:33;;;;;;;5.78;1.23;;;;;;;;;;4993494;28;25125;-73
2023/08/06 13:02:00;;;;;;;2.58;1.02;;;;;;;;;;4994071;28;25130;-74
2023/08/06 13:04:26;;;;;;;1.13;1.02;;;;;;;;;;4988744;28;25066;-75
2023/08/06 13:06:52;;;;;;;4.32;1.05;;;;;;;;;;4990574;28;25099;-74
2023/08/06 13:09:18;;;;;;;1.58;1.13;;;;;;;;;;4994986;28;25084;-74
2023/08/06 13:11:46;;;;;;;3.22;1.15;;;;;;;;;;4996633;28;25123;-73
2023/08/06 13:14:12;;;;;;;1.15;0.90;;;;;;;;;;4999278;28;25105;-72
2023/08/06 13:16:39;;;;;;;8.13;0.95;;;;;;;;;;4991129;28;25115;-73
2023/08/06 13:19:06;;;;;;;5.30;1.45;;;;;;;;;;4993003;28;25175;-73
2023/08/06 13:21:34;;;;;;;2.50;0.88;;;;;;;;;;4991047;28;25088;-74
2023/08/06 13:24:00;;;;;;;1.65;0.80;;;;;;;;;;4993113;28;25051;-74
2023/08/06 13:26:26;;;;;;;1.80;0.93;;;;;;;;;;5005328;28;25073;-73
2023/08/06 13:28:52;;;;;;;1.25;0.90;;;;;;;;;;4996491;28;25103;-77
2023/08/06 13:31:18;;;;;;;3.92;0.60;;;;;;;;;;4996620;28;25124;-73
2023/08/06 13:33:44;;;;;;;1.33;0.73;;;;;;;;;;4989364;28;25077;-72
2023/08/06 13:36:10;;;;;;;4.07;0.85;;;;;;;;;;4988379;28;25159;-73
2023/08/06 13:38:36;;;;;;;1.17;0.60;;;;;;;;;;4996999;28;25049;-74
2023/08/06 13:41:02;;;;;;;3.40;0.60;;;;;;;;;;4998018;28;25108;-74
2023/08/06 13:43:28;;;;;;;4.10;0.70;;;;;;;;;;4999711;28;25095;-73
2023/08/06 13:45:54;;;;;;;3.00;0.65;;;;;;;;;;4991147;28;25093;-74
2023/08/06 13:48:20;;;;;;;2.78;0.68;;;;;;;;;;5000417;28;25057;-72
2023/08/06 13:50:46;;;;;;;1.17;0.47;;;;;;;;;;4994044;28;25065;-74
2023/08/06 13:53:12;;;;;;;1.20;0.60;;;;;;;;;;4994919;28;25069;-73
2023/08/06 13:55:38;;;;;;;2.80;0.70;;;;;;;;;;4997827;28;25149;-72
2023/08/06 13:58:04;;;;;;;6.25;1.27;;;;;;;;;;4998673;28;25085;-75
2023/08/06 14:00:30;;;;;;;5.03;1.10;;;;;;;;;;5000658;28;25080;-74
2023/08/06 14:02:56;;;;;;;6.65;1.38;;;;;;;;;;4997492;28;25081;-72
2023/08/06 14:05:22;;;;;;;5.38;1.30;;;;;;;;;;4994591;28;25108;-74
2023/08/06 14:07:48;;;;;;;6.13;1.08;;;;;;;;;;4995810;28;25108;-75
2023/08/06 14:10:14;;;;;;;6.80;2.08;;;;;;;;;;5007133;28;25059;-74
2023/08/06 14:12:40;;;;;;;2.78;0.98;;;;;;;;;;5013283;28;25090;-73
2023/08/06 14:15:06;;;;;;;5.28;0.98;;;;;;;;;;4997453;28;25098;-73
2023/08/06 14:17:32;;;;;;;3.22;1.10;;;;;;;;;;4984272;28;25071;-74
2023/08/06 14:20:00;;;;;;;6.25;1.20;;;;;;;;;;4997223;28;25057;-74
2023/08/06 14:22:26;;;;;;;3.75;1.00;;;;;;;;;;5011625;28;25071;-75
2023/08/06 14:24:53;;;;;;;4.65;0.73;;;;;;;;;;4998100;28;25038;-74
2023/08/06 14:27:19;;;;;;;1.13;1.05;;;;;;;;;;4994360;28;25068;-73
2023/08/06 14:29:45;;;;;;;2.83;0.93;;;;;;;;;;4990004;28;25156;-73
2023/08/06 14:32:11;;;;;;;3.47;0.80;;;;;;;;;;5001269;28;25104;-74
2023/08/06 14:34:37;;;;;;;2.28;0.93;;;;;;;;;;4999787;28;25100;-74